Time;durP1;ratioP1;P1;durP2;ratioP2;P2;SDS_P1;SDS_P2;PMS_P1;PMS_P2;Temp;Humidity;BMP_temperature;BMP_pressure;BME280_temperature;BME280_humidity;BME280_pressure;Samples;Min_cycle;Max_cycle;Signal;HPM_P1;HPM_P2
2021/05/24 05:30:06;;;;;;;8.58;5.83;;;;;;;11.04;81.23;100850.08;1712640;78;27230;31
2021/05/24 05:32:33;;;;;;;6.40;4.92;;;;;;;11.33;81.61;100842.23;1738910;80;25909;-59
2021/05/24 05:35:02;;;;;;;6.60;4.37;;;;;;;11.59;81.32;100839.81;1727299;81;25911;-59
2021/05/24 05:37:29;;;;;;;6.30;4.28;;;;;;;11.87;81.02;100836.53;1746555;80;27172;-59
2021/05/24 05:39:56;;;;;;;3.87;3.55;;;;;;;12.14;80.00;100844.39;1740550;81;25848;-60
2021/05/24 05:42:25;;;;;;;5.37;4.03;;;;;;;12.42;79.29;100849.71;1722576;81;25779;-59
2021/05/24 05:44:52;;;;;;;4.85;3.98;;;;;;;12.73;79.49;100855.19;1718560;81;25745;-59
2021/05/24 05:47:19;;;;;;;6.83;4.40;;;;;;;13.00;78.71;100850.72;1734673;81;27313;-59
2021/05/24 05:49:48;;;;;;;4.65;4.12;;;;;;;13.30;78.03;100850.47;1709954;82;25878;-60
2021/05/24 05:52:17;;;;;;;5.78;4.35;;;;;;;13.61;78.02;100849.64;1727833;81;25749;-60
2021/05/24 05:54:46;;;;;;;7.40;3.83;;;;;;;13.92;77.10;100856.34;1732235;81;25746;-60
2021/05/24 05:57:13;;;;;;;6.67;4.22;;;;;;;14.23;76.81;100849.17;1738334;81;26455;-60
2021/05/24 05:59:40;;;;;;;6.60;3.98;;;;;;;14.53;76.28;100852.84;1732570;81;27317;-60
2021/05/24 06:02:08;;;;;;;5.85;3.80;;;;;;;14.82;75.40;100853.54;1714390;83;25790;-60
2021/05/24 06:04:35;;;;;;;8.38;5.20;;;;;;;15.10;74.49;100853.95;1727139;82;25786;-60
2021/05/24 06:07:01;;;;;;;4.20;3.80;;;;;;;15.35;73.92;100858.83;1667743;84;26167;-60
2021/05/24 06:09:28;;;;;;;4.83;3.00;;;;;;;15.54;72.58;100857.84;1696561;81;25738;-60
2021/05/24 06:11:54;;;;;;;3.92;3.12;;;;;;;15.67;71.38;100860.91;1677817;83;27594;-60
2021/05/24 06:14:23;;;;;;;6.12;3.55;;;;;;;15.89;71.27;100862.34;1701480;83;26090;-60
2021/05/24 06:16:49;;;;;;;5.80;3.52;;;;;;;16.04;69.87;100864.49;1741816;81;25793;-60
2021/05/24 06:19:16;;;;;;;4.17;3.05;;;;;;;16.16;69.72;100859.67;1742326;81;25630;-60
2021/05/24 06:21:44;;;;;;;4.45;2.67;;;;;;;16.32;67.20;100857.13;1736221;81;27000;-60
2021/05/24 06:24:11;;;;;;;3.87;3.33;;;;;;;16.35;67.01;100868.17;1723530;81;27370;-58
2021/05/24 06:26:38;;;;;;;7.28;2.95;;;;;;;16.40;66.05;100874.80;1730076;81;25713;-61
2021/05/24 06:29:04;;;;;;;7.08;3.05;;;;;;;16.48;65.97;100881.88;1732120;81;25815;-60
2021/05/24 06:31:31;;;;;;;2.98;2.50;;;;;;;16.62;66.61;100881.05;1702490;81;26006;-60
2021/05/24 06:33:58;;;;;;;3.08;2.10;;;;;;;16.84;66.16;100889.45;1738567;81;25672;-60
2021/05/24 06:36:24;;;;;;;5.60;2.45;;;;;;;17.04;65.72;100890.52;1734090;81;28122;-60
2021/05/24 06:38:51;;;;;;;2.72;2.20;;;;;;;17.28;64.66;100887.59;1730924;81;25907;-60
2021/05/24 06:41:17;;;;;;;3.65;2.20;;;;;;;17.53;64.41;100895.26;1708510;82;25855;-61
2021/05/24 06:43:44;;;;;;;2.83;2.35;;;;;;;17.78;64.46;100897.42;1730974;81;26335;-60
2021/05/24 06:46:10;;;;;;;3.08;1.50;;;;;;;18.03;63.73;100900.16;1726029;81;26565;-60
2021/05/24 06:48:36;;;;;;;4.03;2.35;;;;;;;18.28;62.93;100900.91;1723294;81;27371;-60
2021/05/24 06:51:04;;;;;;;6.53;2.08;;;;;;;18.52;61.13;100911.56;1694545;82;25743;-60
2021/05/24 06:53:31;;;;;;;3.35;2.00;;;;;;;18.61;60.24;100908.91;1691422;81;25679;-60
2021/05/24 06:55:57;;;;;;;2.95;1.98;;;;;;;18.63;59.63;100906.61;1724398;82;25796;-60
2021/05/24 06:58:23;;;;;;;3.47;2.05;;;;;;;18.79;59.22;100898.42;1734595;81;25791;-60
2021/05/24 07:00:50;;;;;;;4.28;2.58;;;;;;;18.97;59.08;100899.53;1733856;81;27317;-60
2021/05/24 07:03:18;;;;;;;5.50;2.12;;;;;;;19.25;59.51;100895.92;1721229;81;26100;-60
2021/05/24 07:05:45;;;;;;;5.15;1.90;;;;;;;19.52;57.67;100896.98;1702127;82;25812;-60
2021/05/24 07:08:11;;;;;;;7.37;2.60;;;;;;;19.65;57.13;100892.99;1715910;81;25709;-60
2021/05/24 07:10:37;;;;;;;6.53;1.70;;;;;;;19.89;57.30;100891.22;1722535;81;25836;-60
2021/05/24 07:13:05;;;;;;;3.45;1.52;;;;;;;20.25;57.08;100890.61;1736039;81;27312;-61
2021/05/24 07:15:32;;;;;;;2.25;1.55;;;;;;;20.56;56.28;100888.30;1736151;81;26096;-61
2021/05/24 07:17:59;;;;;;;3.42;1.62;;;;;;;20.77;54.71;100892.08;1740291;81;25736;-61
2021/05/24 07:20:25;;;;;;;3.60;1.50;;;;;;;20.85;52.80;100897.91;1743619;81;25732;-61
2021/05/24 07:22:51;;;;;;;4.03;1.70;;;;;;;20.85;52.45;100892.99;1734468;81;25827;-61
2021/05/24 07:25:18;;;;;;;5.53;1.72;;;;;;;21.05;51.77;100902.79;1725892;82;27269;-61
2021/05/24 07:27:44;;;;;;;3.35;1.55;;;;;;;;;;1728989;81;25678;-61
2021/05/24 07:30:13;;;;;;;4.28;1.82;;;;;;;21.53;52.65;100906.56;1727388;81;26270;-61
2021/05/24 07:32:39;;;;;;;2.15;1.15;;;;;;;21.92;52.39;100909.13;1728838;81;26748;-61
2021/05/24 07:35:07;;;;;;;2.33;1.50;;;;;;;22.14;50.19;100910.22;1723219;81;25691;-61
2021/05/24 07:37:36;;;;;;;4.53;1.42;;;;;;;22.16;49.07;100918.89;1717557;82;27311;-61
2021/05/24 07:40:04;;;;;;;2.23;1.70;;;;;;;22.18;48.57;100922.66;1727417;82;25760;-61
2021/05/24 07:42:31;;;;;;;5.45;1.92;;;;;;;22.12;48.05;100918.66;1699351;81;30462;-61
2021/05/24 07:44:58;;;;;;;1.37;1.00;;;;;;;22.31;47.71;100926.02;1729861;81;27898;-61
2021/05/24 07:47:24;;;;;;;2.55;1.10;;;;;;;22.27;46.50;100920.44;1744199;81;26274;-61
2021/05/24 07:49:51;;;;;;;1.82;1.12;;;;;;;22.40;47.50;100915.49;1736223;81;28181;-61
2021/05/24 07:52:17;;;;;;;1.50;1.17;;;;;;;22.74;47.21;100918.25;1691414;82;25675;-61
2021/05/24 07:54:44;;;;;;;1.95;1.40;;;;;;;23.09;46.46;100929.50;1691177;82;25692;-60
2021/05/24 07:57:10;;;;;;;1.82;1.30;;;;;;;23.05;44.86;100926.65;1682543;84;25912;-60
2021/05/24 07:59:37;;;;;;;2.17;1.27;;;;;;;23.18;44.74;100931.34;1690058;83;26298;-60
2021/05/24 08:02:06;;;;;;;2.60;1.12;;;;;;;23.20;43.89;100928.21;1680255;83;27352;-60
2021/05/24 08:04:33;;;;;;;3.17;1.20;;;;;;;23.35;43.86;100926.38;1684994;83;25706;-61
2021/05/24 08:06:59;;;;;;;2.58;1.35;;;;;;;23.53;43.64;100921.80;1682721;84;25883;-60
2021/05/24 08:09:28;;;;;;;1.95;1.12;;;;;;;23.59;42.24;100920.86;1729181;80;25871;-60
2021/05/24 08:11:55;;;;;;;3.90;1.50;;;;;;;23.49;42.68;100913.47;1729524;81;25709;-60
2021/05/24 08:14:22;;;;;;;1.90;1.70;;;;;;;23.75;42.47;100915.04;1726857;81;27524;-60
2021/05/24 08:16:50;;;;;;;2.55;1.10;;;;;;;23.90;38.72;100918.13;1733951;81;25658;-59
2021/05/24 08:19:17;;;;;;;0.98;0.85;;;;;;;23.93;39.95;100929.80;1725819;82;25785;-60
2021/05/24 08:21:47;;;;;;;2.98;0.90;;;;;;;23.86;40.42;100926.99;1737094;81;26399;-60
2021/05/24 08:24:15;;;;;;;0.75;0.75;;;;;;;24.02;40.52;100927.50;1701080;83;25782;-59
2021/05/24 08:26:42;;;;;;;1.40;0.80;;;;;;;24.14;39.23;100929.12;1732041;82;27298;-60
2021/05/24 08:29:09;;;;;;;2.35;1.32;;;;;;;24.13;38.15;100929.53;1703066;82;25732;-60
2021/05/24 08:31:38;;;;;;;1.27;0.90;;;;;;;24.06;37.94;100921.98;1729147;81;25772;-59
2021/05/24 08:34:04;;;;;;;4.42;1.98;;;;;;;24.17;37.53;100915.91;1734002;81;25804;-60
2021/05/24 08:36:31;;;;;;;1.10;1.00;;;;;;;24.41;39.34;100923.33;1742656;81;26338;-60
2021/05/24 08:38:58;;;;;;;1.75;0.80;;;;;;;24.43;37.63;100934.22;1735817;81;27380;-58
2021/05/24 08:41:25;;;;;;;0.47;0.47;;;;;;;24.29;36.83;100933.35;1707978;82;26042;-59
2021/05/24 08:43:52;;;;;;;0.82;0.70;;;;;;;24.31;38.11;100925.45;1739603;81;26187;-60
2021/05/24 08:46:19;;;;;;;0.82;0.72;;;;;;;24.44;34.91;100925.32;1747599;81;25908;-58
2021/05/24 08:48:45;;;;;;;1.72;0.70;;;;;;;24.27;36.02;100926.05;1732745;81;25786;-59
2021/05/24 08:51:12;;;;;;;0.90;0.68;;;;;;;24.13;36.82;100924.78;1739569;81;27649;-58
2021/05/24 08:53:40;;;;;;;0.80;0.80;;;;;;;24.45;36.88;100928.30;1744461;81;25837;-60
2021/05/24 08:56:08;;;;;;;1.70;0.95;;;;;;;24.49;34.85;100931.86;1740246;81;25970;-60
2021/05/24 08:58:36;;;;;;;2.70;0.98;;;;;;;24.35;36.24;100923.52;1743376;81;25909;-59
2021/05/24 09:01:05;;;;;;;1.25;1.00;;;;;;;24.40;35.89;100940.52;1737775;81;25711;-60
2021/05/24 09:03:33;;;;;;;;;;;;;;;24.46;36.11;100935.40;1749218;81;31066;-60
2021/05/24 09:06:07;;;;;;;2.40;0.93;;;;;;;24.54;35.63;100925.17;1730995;81;25864;-60
2021/05/24 09:08:41;;;;;;;2.25;1.10;;;;;;;24.71;35.73;100928.61;1730056;81;25687;-60
2021/05/24 09:11:30;;;;;;;1.57;1.20;;;;;;;24.69;35.07;100918.53;1744048;81;25768;-61
2021/05/24 09:13:56;;;;;;;1.12;1.02;;;;;;;24.81;35.37;100916.00;1744865;81;25701;-59
2021/05/24 09:16:30;;;;;;;1.37;1.25;;;;;;;24.35;35.64;100914.63;1731041;81;27917;-60
2021/05/24 09:19:15;;;;;;;1.77;1.30;;;;;;;23.91;35.78;100921.70;1726080;81;25804;-58
2021/05/24 09:21:55;;;;;;;1.27;1.10;;;;;;;23.88;36.20;100906.67;1721766;81;25753;-62
2021/05/24 09:24:29;;;;;;;3.30;1.17;;;;;;;23.78;35.48;100915.66;1713808;82;25868;-60
2021/05/24 09:27:01;;;;;;;2.15;1.67;;;;;;;23.19;36.23;100904.54;1732469;81;26444;-61
2021/05/24 09:29:47;;;;;;;1.07;1.00;;;;;;;22.69;36.92;100903.43;1732225;81;27307;-61
2021/05/24 09:32:25;;;;;;;1.70;1.15;;;;;;;22.35;37.12;100902.05;1731466;81;25869;-61
2021/05/24 09:34:54;;;;;;;2.83;1.50;;;;;;;22.23;37.79;100903.05;1753174;79;26548;-61
2021/05/24 09:37:35;;;;;;;1.07;0.98;;;;;;;21.86;37.46;100892.70;1718372;81;25728;-61
2021/05/24 09:40:22;;;;;;;1.05;0.95;;;;;;;21.86;37.46;100892.70;1738653;81;25784;-61
2021/05/24 09:42:48;;;;;;;2.37;1.00;;;;;;;21.44;38.24;100899.13;1727631;81;27331;-60
2021/05/24 09:45:18;;;;;;;1.00;0.90;;;;;;;21.09;38.86;100882.23;1732133;81;25719;-59
2021/05/24 09:47:45;;;;;;;0.80;0.80;;;;;;;21.40;39.26;100885.88;1735713;80;25933;-60
2021/05/24 09:50:16;;;;;;;1.10;1.00;;;;;;;21.48;39.07;100875.23;1733514;81;25803;-60
2021/05/24 09:52:45;;;;;;;1.75;0.80;;;;;;;21.54;39.33;100868.27;1708315;82;26929;-59
2021/05/24 09:55:22;;;;;;;1.20;1.10;;;;;;;21.77;39.66;100872.32;1706713;82;27548;-59
2021/05/24 09:58:07;;;;;;;1.67;1.10;;;;;;;21.94;39.15;100866.07;1708593;81;25925;-60
2021/05/24 10:00:51;;;;;;;1.95;0.90;;;;;;;22.22;39.69;100860.15;1713065;82;25744;-59
2021/05/24 10:03:14;;;;;;;2.02;0.80;;;;;;;22.72;38.52;100862.11;1739215;81;25822;-59
2021/05/24 10:05:46;;;;;;;1.40;0.90;;;;;;;23.07;38.80;100849.88;1729632;81;26055;-59
2021/05/24 10:08:14;;;;;;;3.27;1.20;;;;;;;23.58;39.24;100862.66;1743159;81;27373;-59
2021/05/24 10:10:43;;;;;;;0.98;0.93;;;;;;;23.92;38.37;100864.66;1730245;81;25815;-59
2021/05/24 10:13:11;;;;;;;1.70;1.00;;;;;;;23.82;37.50;100870.35;1724306;81;26894;-59
2021/05/24 10:15:39;;;;;;;2.58;1.05;;;;;;;23.95;37.34;100873.56;1730987;81;27743;-59
2021/05/24 10:18:07;;;;;;;3.70;1.00;;;;;;;23.97;36.39;100872.61;1729108;81;26116;-59
2021/05/24 10:20:35;;;;;;;1.82;1.05;;;;;;;23.97;36.10;100863.52;1700852;82;27220;-59
2021/05/24 10:23:02;;;;;;;4.37;1.02;;;;;;;23.64;35.64;100862.52;1691063;83;25727;-59
2021/05/24 10:25:28;;;;;;;1.40;1.07;;;;;;;23.53;37.02;100863.83;1716331;81;25841;-59
2021/05/24 10:27:58;;;;;;;2.77;1.00;;;;;;;23.67;36.70;100863.13;1709674;81;25761;-59
2021/05/24 10:30:26;;;;;;;1.52;0.93;;;;;;;23.72;37.06;100855.86;1711169;81;25670;-59
2021/05/24 10:32:59;;;;;;;3.60;0.90;;;;;;;23.89;36.81;100850.83;1708720;82;27501;-61
2021/05/24 10:35:38;;;;;;;0.82;0.82;;;;;;;24.47;37.67;100856.81;1712194;82;25716;-60
2021/05/24 10:38:33;;;;;;;1.10;1.00;;;;;;;24.84;35.51;100848.80;1710750;82;25775;-60
2021/05/24 10:41:16;;;;;;;1.12;0.82;;;;;;;24.85;34.86;100844.08;1733977;81;25713;-61
2021/05/24 10:43:49;;;;;;;1.00;0.90;;;;;;;24.97;33.70;100851.38;1723944;82;25722;-61
2021/05/24 10:46:32;;;;;;;1.00;1.00;;;;;;;24.88;34.25;100842.69;1720462;81;27436;-59
2021/05/24 10:49:07;;;;;;;1.90;1.00;;;;;;;25.17;32.93;100849.63;1735644;81;25698;-59
2021/05/24 10:51:58;;;;;;;1.42;0.90;;;;;;;24.86;32.90;100840.92;1720680;82;25697;-58
2021/05/24 10:54:29;;;;;;;1.82;0.90;;;;;;;24.53;32.67;100837.26;1735762;81;25884;-59
2021/05/24 10:57:04;;;;;;;2.60;0.90;;;;;;;24.31;32.79;100860.50;1726559;81;25812;-58
2021/05/24 10:59:48;;;;;;;1.10;0.70;;;;;;;23.95;32.89;100852.06;1730460;81;28629;-60
2021/05/24 11:02:31;;;;;;;1.90;0.68;;;;;;;23.48;33.09;100849.00;1723441;82;25806;-59
2021/05/24 11:05:20;;;;;;;0.80;0.75;;;;;;;23.17;33.54;100850.33;1726746;81;25837;-58
2021/05/24 11:07:50;;;;;;;1.35;0.90;;;;;;;23.01;33.99;100850.57;1722677;81;25729;-59
2021/05/24 11:10:23;;;;;;;3.70;0.80;;;;;;;23.10;34.43;100852.44;1661820;82;25810;-60
2021/05/24 11:12:55;;;;;;;2.52;1.20;;;;;;;23.01;34.00;100847.81;1710400;82;28057;-60
2021/05/24 11:15:33;;;;;;;1.82;0.90;;;;;;;22.83;33.57;100837.98;1725752;81;26422;-61
2021/05/24 11:18:21;;;;;;;0.78;0.72;;;;;;;22.61;34.09;100832.27;1718812;81;25898;-60
2021/05/24 11:21:16;;;;;;;0.85;0.82;;;;;;;22.61;34.38;100834.22;1736281;81;27824;-61
2021/05/24 11:26:32;;;;;;;4.65;1.00;;;;;;;22.21;34.66;100835.13;1720208;81;27380;-61
2021/05/24 11:29:08;;;;;;;1.42;0.80;;;;;;;21.93;34.94;100846.57;1731619;81;25452;-67
2021/05/24 11:31:40;;;;;;;1.12;0.80;;;;;;;21.62;35.91;100840.25;1739210;81;25895;-70
2021/05/24 11:34:17;;;;;;;2.10;1.30;;;;;;;21.51;35.71;100852.48;1729003;81;25792;-70
2021/05/24 11:36:50;;;;;;;0.70;0.70;;;;;;;21.36;36.34;100845.14;1722882;81;26005;-69
2021/05/24 11:39:34;;;;;;;0.75;0.75;;;;;;;21.28;36.32;100841.47;1720418;81;27395;-67
2021/05/24 11:42:12;;;;;;;4.75;1.00;;;;;;;21.20;36.24;100829.58;1697340;83;26362;-68
2021/05/24 11:44:46;;;;;;;0.70;0.70;;;;;;;21.15;36.21;100821.64;1714068;82;25943;-67
2021/05/24 11:47:18;;;;;;;1.10;1.00;;;;;;;21.11;37.51;100826.86;1691923;82;27779;-67
2021/05/24 11:49:48;;;;;;;0.75;0.75;;;;;;;21.20;37.80;100825.45;1712297;82;25850;-67
2021/05/24 11:52:17;;;;;;;1.22;0.80;;;;;;;;;;1705951;82;27492;-66
2021/05/24 11:54:48;;;;;;;7.60;1.07;;;;;;;21.16;37.15;100833.42;1689542;82;25990;-66
2021/05/24 11:57:16;;;;;;;1.25;1.00;;;;;;;20.92;37.01;100852.47;1698758;82;26485;-66
2021/05/24 11:59:42;;;;;;;1.47;1.10;;;;;;;20.76;37.66;100842.38;1716322;82;25884;-66
2021/05/24 12:02:09;;;;;;;2.65;1.37;;;;;;;20.67;37.43;100830.80;1714311;81;26030;-65
2021/05/24 12:04:40;;;;;;;4.12;1.10;;;;;;;20.39;37.83;100824.18;1713942;82;27502;-64
2021/05/24 12:07:17;;;;;;;1.30;1.20;;;;;;;20.26;38.30;100827.08;1727471;81;25802;-63
2021/05/24 12:10:01;;;;;;;3.00;1.00;;;;;;;20.29;38.64;100820.84;1739000;81;25741;-63
2021/05/24 12:12:35;;;;;;;1.65;1.00;;;;;;;20.27;39.01;100814.92;1740036;81;25828;-63
2021/05/24 12:15:04;;;;;;;0.80;0.75;;;;;;;20.28;38.54;100824.77;1733448;81;25874;-63
2021/05/24 12:17:35;;;;;;;0.80;0.75;;;;;;;20.18;38.58;100832.21;1746200;81;27455;-63
2021/05/24 12:20:09;;;;;;;1.20;0.80;;;;;;;20.00;38.42;100826.34;1740459;81;25869;-63
2021/05/24 12:22:40;;;;;;;1.10;0.95;;;;;;;19.99;38.96;100821.20;1726929;81;25907;-63
2021/05/24 12:25:09;;;;;;;1.02;0.80;;;;;;;19.93;39.37;100811.09;1744965;81;25839;-63
2021/05/24 12:27:36;;;;;;;1.22;0.70;;;;;;;19.99;39.43;100817.91;1711533;81;26021;-63
2021/05/24 12:30:30;;;;;;;0.70;0.70;;;;;;;19.99;38.96;100803.36;1719847;81;26920;-62
2021/05/24 12:33:05;;;;;;;0.90;0.80;;;;;;;19.93;38.83;100801.48;1726946;81;25858;-62
2021/05/24 12:35:39;;;;;;;1.47;0.80;;;;;;;19.84;38.58;100790.72;1729452;81;26142;-62
2021/05/24 12:38:32;;;;;;;2.67;0.90;;;;;;;19.86;39.38;100782.13;1743396;81;25684;-62
2021/05/24 12:41:03;;;;;;;2.12;0.80;;;;;;;19.92;39.64;100773.25;1744402;81;25857;-62
2021/05/24 12:43:33;;;;;;;0.60;0.60;;;;;;;20.07;38.82;100776.27;1740293;81;27315;-62
2021/05/24 12:45:59;;;;;;;0.60;0.60;;;;;;;20.17;39.04;100771.56;1737182;81;26284;-63
2021/05/24 12:48:30;;;;;;;1.70;0.80;;;;;;;20.20;38.66;100767.31;1736209;81;25744;-63
2021/05/24 12:50:58;;;;;;;0.80;0.80;;;;;;;20.19;38.92;100767.88;1736126;81;25837;-64
2021/05/24 12:53:28;;;;;;;1.25;0.80;;;;;;;20.36;39.11;100774.08;1735978;81;25740;-60
2021/05/24 12:56:08;;;;;;;1.95;0.90;;;;;;;20.53;38.89;100773.05;1742718;80;28020;-59
2021/05/24 12:58:39;;;;;;;1.35;0.80;;;;;;;20.69;38.15;100774.91;1734317;81;25665;-60
2021/05/24 13:01:06;;;;;;;1.90;0.80;;;;;;;20.66;38.30;100767.39;1738750;81;25965;-60
2021/05/24 13:03:50;;;;;;;1.20;1.00;;;;;;;20.69;38.39;100761.17;1728428;81;26242;-59
2021/05/24 13:06:17;;;;;;;0.80;0.68;;;;;;;20.78;38.27;100756.20;1738983;81;25759;-60
2021/05/24 13:09:04;;;;;;;0.85;0.85;;;;;;;20.99;38.49;100742.59;1712382;83;27348;-59
2021/05/24 13:11:30;;;;;;;1.22;0.80;;;;;;;21.09;38.04;100735.09;1738771;81;25822;-59
2021/05/24 13:14:04;;;;;;;1.17;1.05;;;;;;;20.95;36.97;100731.55;1753535;79;26608;-59
2021/05/24 13:16:36;;;;;;;0.95;0.80;;;;;;;20.84;36.94;100731.39;1736851;81;27860;-58
2021/05/24 13:30:32;;;;;;;1.30;0.88;;;;;;;21.03;37.27;100753.87;1732919;81;25882;-58
2021/05/24 13:33:00;;;;;;;2.00;1.15;;;;;;;21.10;36.97;100764.19;1735051;81;25638;-57
2021/05/24 13:35:33;;;;;;;2.60;1.20;;;;;;;21.07;37.44;100761.58;1717672;82;27961;-58
2021/05/24 13:38:13;;;;;;;1.80;1.10;;;;;;;21.14;37.59;100758.73;1719068;82;27189;-59
2021/05/24 13:40:41;;;;;;;1.90;1.00;;;;;;;21.34;36.69;100758.06;1742994;81;25544;-59
2021/05/24 13:43:07;;;;;;;1.10;0.95;;;;;;;21.50;37.02;100766.95;1730591;81;25750;-58
2021/05/24 13:45:34;;;;;;;1.00;1.00;;;;;;;21.53;36.13;100781.34;1731953;81;25970;-58
2021/05/24 13:48:00;;;;;;;2.17;1.10;;;;;;;21.41;36.12;100758.94;1732849;81;27305;-58
2021/05/24 13:50:30;;;;;;;2.52;1.30;;;;;;;21.33;36.90;100751.75;1720575;81;26391;-58
2021/05/24 13:52:57;;;;;;;1.82;0.80;;;;;;;21.35;36.16;100747.25;1723865;81;25629;-60
2021/05/24 13:55:24;;;;;;;1.67;1.10;;;;;;;21.17;36.33;100739.53;1722756;81;25940;-60
2021/05/24 13:57:50;;;;;;;2.67;0.88;;;;;;;21.03;36.19;100751.71;1728690;81;25667;-59
2021/05/24 14:00:24;;;;;;;2.58;0.95;;;;;;;20.86;36.41;100734.55;1734665;81;28018;-58
2021/05/24 14:02:47;;;;;;;1.52;1.05;;;;;;;20.78;36.54;100725.97;1732671;81;25852;-58
2021/05/24 14:05:14;;;;;;;1.70;1.10;;;;;;;20.71;36.72;100725.27;1676069;84;26570;-59
2021/05/24 14:07:41;;;;;;;1.35;1.00;;;;;;;20.75;37.39;100715.70;1676455;83;25808;-59
2021/05/24 14:10:09;;;;;;;2.35;1.22;;;;;;;20.77;37.48;100713.41;1682589;84;25730;-58
2021/05/24 14:12:35;;;;;;;4.30;1.00;;;;;;;20.82;37.63;100706.22;1700302;81;27386;-58
2021/05/24 14:15:02;;;;;;;1.05;0.93;;;;;;;20.92;37.28;100695.16;1723165;81;26354;-58
2021/05/24 14:17:28;;;;;;;1.82;0.90;;;;;;;20.93;36.91;100694.59;1719662;81;25768;-57
2021/05/24 14:19:54;;;;;;;1.10;0.90;;;;;;;21.02;36.60;100694.52;1710846;81;26404;-57
2021/05/24 14:22:21;;;;;;;0.90;0.90;;;;;;;21.05;36.57;100695.75;1667213;84;25884;-57
2021/05/24 14:24:47;;;;;;;1.70;0.85;;;;;;;21.03;36.63;100693.38;1728881;81;29513;-57
2021/05/24 14:27:14;;;;;;;0.60;0.60;;;;;;;21.17;37.19;100699.66;1723775;80;25809;-58
2021/05/24 14:29:40;;;;;;;0.72;0.72;;;;;;;21.32;37.01;100702.59;1721425;81;25848;-57
2021/05/24 14:32:07;;;;;;;1.27;0.90;;;;;;;21.39;36.38;100699.37;1721639;81;25937;-57
2021/05/24 14:34:34;;;;;;;1.22;0.60;;;;;;;21.36;35.98;100682.81;1706496;81;25733;-57
2021/05/24 14:37:00;;;;;;;0.72;0.68;;;;;;;21.32;35.78;100678.64;1736118;81;27332;-59
2021/05/24 14:39:27;;;;;;;2.67;0.88;;;;;;;21.27;36.04;100671.50;1745488;81;25733;-57
2021/05/24 14:41:54;;;;;;;0.60;0.60;;;;;;;21.28;36.11;100677.78;1719559;81;26045;-57
2021/05/24 14:44:20;;;;;;;0.90;0.78;;;;;;;21.18;35.95;100668.81;1715110;81;26680;-58
2021/05/24 14:46:47;;;;;;;1.35;0.80;;;;;;;21.13;36.30;100669.13;1715009;81;25649;-58
2021/05/24 14:49:14;;;;;;;0.80;0.72;;;;;;;21.13;36.07;100669.95;1711534;82;29456;-58
2021/05/24 14:51:43;;;;;;;3.17;0.80;;;;;;;21.05;35.74;100660.79;1709315;82;25844;-58
2021/05/24 14:54:11;;;;;;;0.60;0.60;;;;;;;21.01;36.10;100661.89;1705382;82;25688;-58
2021/05/24 14:56:39;;;;;;;1.07;0.70;;;;;;;21.04;36.19;100655.66;1693930;82;27124;-58
2021/05/24 14:59:05;;;;;;;1.15;0.88;;;;;;;21.04;35.94;100656.47;1720977;82;25653;-58
2021/05/24 15:01:32;;;;;;;0.60;0.60;;;;;;;21.00;35.32;100648.73;1728100;82;27374;-59
2021/05/24 15:03:58;;;;;;;0.75;0.75;;;;;;;20.97;36.39;100650.06;1726358;81;25721;-59
2021/05/24 15:06:25;;;;;;;0.75;0.60;;;;;;;20.96;36.50;100653.41;1726690;81;25844;-59
2021/05/24 15:08:52;;;;;;;1.00;0.80;;;;;;;20.90;35.96;100657.03;1737999;81;25803;-59
2021/05/24 15:11:19;;;;;;;0.80;0.60;;;;;;;20.83;35.84;100636.91;1726675;81;25699;-59
2021/05/24 15:13:46;;;;;;;2.65;0.53;;;;;;;20.77;35.88;100646.63;1726957;82;27200;-59
2021/05/24 15:16:13;;;;;;;1.22;0.65;;;;;;;20.74;35.97;100645.98;1725373;82;27257;-59
2021/05/24 15:18:39;;;;;;;1.67;0.93;;;;;;;20.68;35.72;100651.02;1730957;81;26030;-59
2021/05/24 15:21:05;;;;;;;0.75;0.65;;;;;;;20.60;35.58;100648.72;1717886;82;25838;-59
2021/05/24 15:23:32;;;;;;;1.65;0.85;;;;;;;20.53;36.23;100644.46;1717696;81;25958;-59
2021/05/24 15:25:58;;;;;;;3.08;1.37;;;;;;;20.48;36.40;100635.16;1705918;81;27309;-58
2021/05/24 15:28:27;;;;;;;1.17;0.80;;;;;;;20.53;37.22;100637.59;1719536;82;25764;-59
2021/05/24 15:30:55;;;;;;;1.22;0.80;;;;;;;20.55;37.31;100631.73;1732464;81;26380;-59
2021/05/24 15:33:21;;;;;;;1.80;1.00;;;;;;;20.57;37.56;100630.22;1724156;81;25706;-58
2021/05/24 15:35:48;;;;;;;2.62;1.57;;;;;;;20.62;37.62;100633.21;1717788;81;25785;-58
2021/05/24 15:38:17;;;;;;;2.25;1.20;;;;;;;20.63;37.58;100627.37;1723234;82;27279;-58
2021/05/24 15:40:45;;;;;;;;;;;;;;;20.65;37.46;100625.08;1744216;81;26592;-58
2021/05/24 15:43:14;;;;;;;0.82;0.80;;;;;;;20.61;37.82;100618.69;1726127;81;26351;-57
2021/05/24 15:45:41;;;;;;;1.80;1.07;;;;;;;20.56;37.80;100618.22;1743539;81;26007;-58
2021/05/24 15:48:08;;;;;;;2.55;0.90;;;;;;;20.41;37.64;100630.34;1732248;81;26504;-58
2021/05/24 15:50:36;;;;;;;2.50;0.80;;;;;;;20.34;38.24;100627.48;1738700;81;27293;-58
2021/05/24 15:53:03;;;;;;;5.62;0.90;;;;;;;20.30;38.16;100628.02;1712908;81;26367;-58
2021/05/24 15:55:32;;;;;;;0.90;0.80;;;;;;;20.27;38.49;100619.91;1722055;81;25910;-58
2021/05/24 15:58:01;;;;;;;2.05;0.90;;;;;;;20.17;38.22;100623.86;1741137;81;25846;-58
2021/05/24 16:00:28;;;;;;;4.12;1.10;;;;;;;20.03;38.50;100617.55;1725425;81;33287;-58
2021/05/24 16:02:56;;;;;;;3.35;0.95;;;;;;;19.88;38.76;100621.39;1734654;81;27086;-58
2021/05/24 16:05:23;;;;;;;3.72;1.75;;;;;;;19.73;39.20;100616.20;1727146;80;27149;-58
2021/05/24 16:07:51;;;;;;;1.60;0.93;;;;;;;19.63;39.50;100619.55;1722275;81;25781;-58
2021/05/24 16:10:17;;;;;;;1.35;0.95;;;;;;;19.56;39.75;100624.87;1713949;81;25880;-58
2021/05/24 16:12:44;;;;;;;1.90;1.02;;;;;;;19.45;39.78;100619.18;1717118;81;25870;-58
2021/05/24 16:15:12;;;;;;;4.70;1.55;;;;;;;19.35;40.11;100605.45;1722870;81;27220;-58
2021/05/24 16:17:39;;;;;;;1.50;1.25;;;;;;;19.27;40.44;100602.94;1690885;82;25847;-58
2021/05/24 16:20:08;;;;;;;4.08;1.02;;;;;;;19.23;40.48;100603.65;1716114;81;25959;-58
2021/05/24 16:22:34;;;;;;;3.05;0.72;;;;;;;19.16;40.64;100590.39;1666964;82;25904;-58
2021/05/24 16:27:28;;;;;;;0.98;0.98;;;;;;;19.13;41.02;100570.54;1733994;81;27304;-59
2021/05/24 16:29:55;;;;;;;1.65;1.17;;;;;;;19.07;41.22;100563.19;1723979;81;25954;-58
2021/05/24 16:32:22;;;;;;;1.90;1.12;;;;;;;19.03;41.29;100565.04;1716112;81;25771;-58
2021/05/24 16:34:48;;;;;;;1.82;1.27;;;;;;;18.99;41.38;100562.23;1721806;81;25792;-58
2021/05/24 16:37:16;;;;;;;1.10;0.90;;;;;;;18.95;41.52;100561.93;1722066;80;25859;-60
2021/05/24 16:39:43;;;;;;;3.37;1.07;;;;;;;18.89;41.59;100569.65;1718416;81;27648;-58
2021/05/24 16:42:10;;;;;;;3.08;1.20;;;;;;;18.87;41.92;100571.17;1703693;81;25740;-58
2021/05/24 16:44:36;;;;;;;2.52;1.10;;;;;;;18.78;42.00;100561.73;1719686;81;26567;-58
2021/05/24 16:47:03;;;;;;;1.00;0.90;;;;;;;18.72;42.28;100560.44;1717504;81;26604;-58
2021/05/24 16:49:29;;;;;;;3.50;1.52;;;;;;;18.69;42.44;100555.67;1732037;80;25854;-59
2021/05/24 16:51:56;;;;;;;2.83;1.07;;;;;;;18.67;42.68;100564.24;1717080;80;27339;-58
2021/05/24 16:54:22;;;;;;;2.17;1.07;;;;;;;18.65;42.80;100552.27;1712553;81;25713;-58
2021/05/24 16:56:49;;;;;;;1.60;1.00;;;;;;;18.64;42.92;100558.10;1736260;81;26915;-58
2021/05/24 16:59:16;;;;;;;4.92;2.00;;;;;;;18.63;42.99;100551.84;1737544;81;25755;-58
2021/05/24 17:01:43;;;;;;;1.20;1.10;;;;;;;18.64;43.35;100543.03;1709593;82;25841;-58
2021/05/24 17:04:09;;;;;;;3.30;1.50;;;;;;;18.68;43.38;100545.30;1715966;81;27281;-58
2021/05/24 17:06:36;;;;;;;0.88;0.78;;;;;;;18.70;43.37;100532.61;1708664;81;26067;-58
2021/05/24 17:09:04;;;;;;;2.12;1.00;;;;;;;18.70;43.55;100532.03;1720302;81;25750;-58
2021/05/24 17:11:30;;;;;;;1.82;1.20;;;;;;;18.74;43.53;100530.73;1703539;82;26628;-58
2021/05/24 17:14:01;;;;;;;2.62;1.40;;;;;;;18.74;43.74;100529.36;1719074;81;26565;-58
2021/05/24 17:16:28;;;;;;;2.87;1.05;;;;;;;18.76;43.73;100527.05;1727653;81;29726;-58
2021/05/24 17:18:58;;;;;;;2.80;1.07;;;;;;;18.77;43.70;100526.69;1710132;82;25910;-58
2021/05/24 17:21:26;;;;;;;;;;;;;;;18.77;43.87;100518.47;1718741;81;26121;-59
2021/05/24 17:23:56;;;;;;;3.65;2.02;;;;;;;18.73;43.50;100514.06;1712644;81;25718;-60